Time;durP1;ratioP1;P1;durP2;ratioP2;P2;SDS_P1;SDS_P2;PMS_P1;PMS_P2;Temp;Humidity;BMP_temperature;BMP_pressure;BME280_temperature;BME280_humidity;BME280_pressure;Samples;Min_cycle;Max_cycle;Signal;HPM_P1;HPM_P2
2024/02/16 00:01:47;;;;;;;2.27;1.03;;;;;;;-145.69;47.20;52214.66;5112901;28;20224;-80
2024/02/16 00:04:14;;;;;;;1.02;0.80;;;;;;;-145.69;47.75;52214.66;5111449;28;20427;-79
2024/02/16 00:06:40;;;;;;;2.10;1.20;;;;;;;-145.69;47.48;52220.59;5112822;28;20295;-79
2024/02/16 00:09:09;;;;;;;0.70;0.67;;;;;;;-145.69;47.68;52212.69;5112986;28;20719;-82
2024/02/16 00:11:37;;;;;;;2.20;0.90;;;;;;;-145.69;48.04;52198.81;5113302;28;20659;-80
2024/02/16 00:14:04;;;;;;;2.20;1.00;;;;;;;-145.69;47.98;52208.72;5113183;28;20201;-80
2024/02/16 00:16:30;;;;;;;1.17;0.87;;;;;;;-145.69;47.61;52246.34;5113053;28;20208;-80
2024/02/16 00:18:55;;;;;;;1.40;0.83;;;;;;;-145.69;47.98;52226.53;5113060;28;20246;-80
2024/02/16 00:21:22;;;;;;;3.77;1.07;;;;;;;-145.69;47.88;52202.78;5112703;27;20202;-81
2024/02/16 00:23:48;;;;;;;1.03;0.83;;;;;;;-145.69;47.69;52230.50;5112401;28;20197;-80
2024/02/16 00:26:15;;;;;;;0.73;0.70;;;;;;;-145.69;47.64;52224.56;5113367;28;20205;-80
2024/02/16 00:28:43;;;;;;;1.63;0.83;;;;;;;-145.69;48.29;52218.63;5113287;28;20720;-80
2024/02/16 00:31:12;;;;;;;1.10;0.70;;;;;;;-145.69;47.25;52220.59;5113238;28;20197;-81
2024/02/16 00:33:38;;;;;;;0.97;0.77;;;;;;;-145.69;47.40;52232.50;5112884;28;20203;-82
2024/02/16 00:36:05;;;;;;;1.23;0.93;;;;;;;-145.69;47.35;52246.34;5112859;28;20205;-81
2024/02/16 00:38:31;;;;;;;1.67;0.80;;;;;;;-145.69;47.41;52202.78;5112678;28;20216;-80
2024/02/16 00:40:58;;;;;;;3.20;0.87;;;;;;;-145.69;47.04;52208.72;5111546;28;20258;-80
2024/02/16 00:43:24;;;;;;;1.10;0.70;;;;;;;-145.69;47.20;52194.88;5112137;28;20316;-80
2024/02/16 00:45:52;;;;;;;2.50;0.70;;;;;;;-145.69;47.45;52234.47;5111976;28;20197;-80
2024/02/16 00:48:19;;;;;;;4.93;0.60;;;;;;;-145.69;47.71;52173.09;5112631;28;20233;-81
2024/02/16 00:50:45;;;;;;;0.83;0.50;;;;;;;-145.69;47.46;52238.44;5112748;28;20209;-82
2024/02/16 00:53:12;;;;;;;1.37;0.70;;;;;;;-145.69;47.15;52224.56;5112998;28;20206;-80
2024/02/16 00:55:41;;;;;;;1.70;0.90;;;;;;;-145.69;46.97;52262.19;5112591;28;20201;-79
2024/02/16 00:58:07;;;;;;;1.40;0.70;;;;;;;-145.69;46.86;52192.88;5112077;28;20474;-80
2024/02/16 01:00:35;;;;;;;1.17;0.70;;;;;;;-145.69;46.58;52226.53;5112955;28;20706;-80
2024/02/16 01:03:03;;;;;;;1.27;0.60;;;;;;;-145.69;45.86;52222.59;5111786;28;20228;-81
2024/02/16 01:05:30;;;;;;;4.20;0.90;;;;;;;-145.69;46.76;52222.59;5112811;28;20251;-81
2024/02/16 01:07:56;;;;;;;1.07;0.60;;;;;;;-145.69;45.16;52226.53;5112739;28;20205;-81
2024/02/16 01:10:23;;;;;;;7.70;0.80;;;;;;;-145.69;44.30;52179.03;5111431;28;20254;-81
2024/02/16 01:12:51;;;;;;;0.70;0.70;;;;;;;-145.69;43.28;52198.81;5112771;28;20198;-81
2024/02/16 01:15:18;;;;;;;0.63;0.63;;;;;;;-145.69;43.48;52190.91;5112065;28;20243;-81
2024/02/16 01:17:44;;;;;;;0.60;0.57;;;;;;;-145.69;43.09;52200.81;5111840;28;20201;-81
2024/02/16 01:20:13;;;;;;;3.08;0.80;;;;;;;-145.69;43.28;52190.91;5102614;28;20201;-80
2024/02/16 01:22:40;;;;;;;1.02;0.60;;;;;;;-145.69;42.76;52210.72;5112655;28;20237;-81
2024/02/16 01:25:08;;;;;;;3.22;0.70;;;;;;;-145.69;42.08;52214.66;5112570;28;20200;-80
2024/02/16 01:27:35;;;;;;;2.17;0.70;;;;;;;-145.69;43.44;52192.88;5112694;28;20198;-81
2024/02/16 01:30:02;;;;;;;0.83;0.83;;;;;;;-145.69;43.82;52196.84;5112015;28;20655;-81
2024/02/16 01:32:29;;;;;;;1.57;0.87;;;;;;;-145.69;44.81;52202.78;5112180;28;20198;-81
2024/02/16 01:34:55;;;;;;;0.93;0.80;;;;;;;-145.69;45.21;52200.81;5115264;28;20563;-81
2024/02/16 01:37:23;;;;;;;0.75;0.70;;;;;;;-145.69;45.21;52204.75;5116167;28;20205;-81
2024/02/16 01:39:50;;;;;;;1.98;0.82;;;;;;;-145.69;44.53;52208.72;5115394;28;20190;-81
2024/02/16 01:42:16;;;;;;;0.90;0.80;;;;;;;-145.69;44.80;52198.81;5115746;28;20250;-81
2024/02/16 01:44:42;;;;;;;0.80;0.60;;;;;;;-145.69;45.04;52220.59;5115908;28;20204;-81
2024/02/16 01:47:09;;;;;;;1.20;0.70;;;;;;;-145.69;45.51;52218.63;5115975;28;20230;-81
2024/02/16 01:49:35;;;;;;;0.52;0.52;;;;;;;-145.69;45.26;52196.84;5115441;28;20237;-81
2024/02/16 01:52:03;;;;;;;3.40;0.67;;;;;;;-145.69;45.44;52202.78;5115956;28;20197;-81
2024/02/16 01:54:31;;;;;;;0.95;0.70;;;;;;;-145.69;45.24;52222.59;5115429;28;20271;-80
2024/02/16 01:56:57;;;;;;;0.93;0.60;;;;;;;-145.69;45.85;52234.47;5115869;28;20201;-80
2024/02/16 01:59:24;;;;;;;1.17;0.80;;;;;;;-145.69;46.61;52208.72;5114962;28;20224;-80
2024/02/16 02:01:51;;;;;;;1.03;0.83;;;;;;;-145.69;47.07;52198.81;5115616;28;20201;-80
2024/02/16 02:04:17;;;;;;;0.87;0.70;;;;;;;-145.69;46.26;52210.72;5115632;28;20670;-80
2024/02/16 02:06:44;;;;;;;1.13;0.70;;;;;;;-145.69;46.38;52214.66;5115553;28;20556;-80
2024/02/16 02:09:10;;;;;;;0.97;0.63;;;;;;;-145.69;45.61;52238.44;5115608;28;20202;-81
2024/02/16 02:11:38;;;;;;;1.53;0.70;;;;;;;-145.69;44.88;52226.53;5115170;28;20201;-80
2024/02/16 02:14:05;;;;;;;0.63;0.63;;;;;;;-145.69;45.93;52238.44;5114937;28;20208;-80
2024/02/16 02:16:31;;;;;;;1.30;0.77;;;;;;;-145.69;46.58;52210.72;5115720;27;20193;-80
2024/02/16 02:18:58;;;;;;;1.20;0.60;;;;;;;-145.69;47.35;52216.66;5115598;28;20197;-80
2024/02/16 02:21:24;;;;;;;1.30;0.60;;;;;;;-145.69;47.22;52250.31;5115452;28;20205;-79
2024/02/16 02:23:52;;;;;;;1.57;0.60;;;;;;;-145.69;47.60;52194.88;5115133;28;20225;-80
2024/02/16 02:26:18;;;;;;;1.23;0.60;;;;;;;-145.69;47.34;52188.91;5115304;27;20197;-80
2024/02/16 02:28:45;;;;;;;1.03;0.63;;;;;;;-145.69;46.46;52182.97;5114549;28;20200;-81
2024/02/16 02:31:12;;;;;;;1.10;0.63;;;;;;;-145.69;47.53;52230.50;5114913;27;20197;-81
2024/02/16 02:33:38;;;;;;;1.07;0.80;;;;;;;-145.69;46.81;52206.75;5114830;28;20193;-80
2024/02/16 02:36:05;;;;;;;1.98;0.68;;;;;;;-145.69;47.48;52206.75;5115182;28;20200;-80
2024/02/16 02:38:33;;;;;;;1.47;0.60;;;;;;;-145.69;47.56;52212.69;5114887;28;20197;-80
2024/02/16 02:41:00;;;;;;;0.70;0.70;;;;;;;-145.69;47.60;52214.66;5114788;28;20193;-80
2024/02/16 02:43:27;;;;;;;4.50;0.90;;;;;;;-145.69;47.81;52222.59;5115196;28;20236;-80
2024/02/16 02:45:53;;;;;;;0.90;0.60;;;;;;;-145.69;47.80;52232.50;5114231;28;20208;-79
2024/02/16 02:48:20;;;;;;;0.83;0.60;;;;;;;-145.69;47.38;52228.53;5114794;28;20229;-80
2024/02/16 02:50:46;;;;;;;0.80;0.60;;;;;;;-145.69;47.97;52226.53;5114893;28;20201;-80
2024/02/16 02:53:13;;;;;;;0.87;0.73;;;;;;;-145.69;48.29;52218.63;5114335;28;20209;-79
2024/02/16 02:55:39;;;;;;;4.60;0.90;;;;;;;-145.69;48.25;52270.13;5114698;28;20198;-81
2024/02/16 02:58:07;;;;;;;1.17;0.70;;;;;;;-145.69;48.72;52214.66;5114471;28;20197;-80
2024/02/16 03:00:34;;;;;;;1.50;0.70;;;;;;;-145.69;49.15;52266.16;5114738;28;20197;-81
2024/02/16 03:03:01;;;;;;;0.93;0.73;;;;;;;-145.69;49.36;52250.31;5114580;28;20225;-81
2024/02/16 03:05:28;;;;;;;2.20;0.90;;;;;;;-145.69;49.05;52234.47;5114596;28;20297;-82
2024/02/16 03:07:55;;;;;;;3.70;0.77;;;;;;;-145.69;49.81;52198.81;5114378;28;20201;-80
2024/02/16 03:10:23;;;;;;;1.90;0.77;;;;;;;-145.69;50.28;52230.50;5114326;28;20476;-80
2024/02/16 03:12:50;;;;;;;0.77;0.70;;;;;;;-145.69;49.83;52226.53;5114065;28;20285;-80
2024/02/16 03:15:18;;;;;;;0.50;0.50;;;;;;;-145.69;49.41;52228.53;5114365;28;20200;-80
2024/02/16 03:17:44;;;;;;;2.53;0.80;;;;;;;-145.69;50.11;52194.88;5114144;28;20198;-81
2024/02/16 03:20:11;;;;;;;5.47;0.70;;;;;;;-145.69;49.86;52264.16;5114345;28;20229;-80
2024/02/16 03:22:38;;;;;;;0.53;0.53;;;;;;;-145.69;49.85;52206.75;5113866;28;20229;-80
2024/02/16 03:25:05;;;;;;;0.77;0.73;;;;;;;-145.69;49.34;52230.50;5114112;28;20296;-80
2024/02/16 03:27:31;;;;;;;7.00;0.73;;;;;;;-145.69;48.21;52222.59;5114252;28;20288;-80
2024/02/16 03:29:58;;;;;;;2.57;0.93;;;;;;;-145.69;48.13;52244.38;5114097;28;20208;-79
2024/02/16 03:32:26;;;;;;;2.07;0.83;;;;;;;-145.69;48.44;52210.72;5113985;28;20682;-80
2024/02/16 03:34:52;;;;;;;5.57;0.80;;;;;;;-145.69;47.65;52246.34;5114017;28;20198;-80
2024/02/16 03:37:19;;;;;;;0.53;0.53;;;;;;;-145.69;48.24;52222.59;5113798;28;20208;-80
2024/02/16 03:39:45;;;;;;;1.30;0.60;;;;;;;-145.69;48.38;52226.53;5113932;28;20258;-80
2024/02/16 03:42:12;;;;;;;1.10;0.70;;;;;;;-145.69;48.62;52196.84;5113673;28;20203;-79
2024/02/16 03:44:38;;;;;;;0.70;0.63;;;;;;;-145.69;48.23;52210.72;5113992;28;20217;-80
2024/02/16 03:47:05;;;;;;;0.83;0.80;;;;;;;-145.69;48.33;52214.66;5113231;28;20193;-80
2024/02/16 03:49:32;;;;;;;1.70;0.60;;;;;;;-145.69;47.51;52210.72;5113200;28;20278;-80
2024/02/16 03:51:58;;;;;;;0.83;0.73;;;;;;;-145.69;47.44;52210.72;5113956;28;20201;-81
2024/02/16 03:54:24;;;;;;;0.60;0.50;;;;;;;-145.69;47.58;52234.47;5113445;28;20197;-80
2024/02/16 03:56:54;;;;;;;1.27;0.70;;;;;;;-145.69;47.42;52214.66;5113436;27;20193;-81
2024/02/16 03:59:20;;;;;;;1.87;0.80;;;;;;;-145.69;46.60;52214.66;5113303;28;20201;-81
2024/02/16 04:01:46;;;;;;;1.60;0.90;;;;;;;-145.69;47.33;52218.63;5112677;28;20197;-80
2024/02/16 04:04:13;;;;;;;2.10;0.83;;;;;;;-145.69;46.65;52188.91;5113305;28;20716;-80
2024/02/16 04:06:41;;;;;;;1.77;0.93;;;;;;;-145.69;46.74;52210.72;5113081;28;20198;-80
2024/02/16 04:09:07;;;;;;;3.03;0.80;;;;;;;-145.69;46.64;52222.59;5113041;28;20198;-82
2024/02/16 04:11:35;;;;;;;0.70;0.70;;;;;;;-145.69;46.65;52206.75;5112852;28;20273;-81
2024/02/16 04:14:01;;;;;;;3.67;1.00;;;;;;;-145.69;46.94;52240.41;5113373;28;20193;-80
2024/02/16 04:16:29;;;;;;;2.40;0.77;;;;;;;-145.69;47.05;52198.81;5112773;28;20276;-80
2024/02/16 04:18:56;;;;;;;2.00;1.00;;;;;;;-145.69;47.98;52230.50;5112982;28;20553;-80
2024/02/16 04:21:22;;;;;;;0.67;0.63;;;;;;;-145.69;46.67;52214.66;5113030;28;20639;-80
2024/02/16 04:23:50;;;;;;;0.90;0.90;;;;;;;-145.69;46.74;52218.63;5112654;28;20221;-81
2024/02/16 04:26:16;;;;;;;1.00;0.80;;;;;;;-145.69;46.41;52266.16;5113006;28;20216;-81
2024/02/16 04:28:43;;;;;;;1.20;0.70;;;;;;;-145.69;46.43;52214.66;5113098;27;20598;-81
2024/02/16 04:31:09;;;;;;;2.13;0.80;;;;;;;-145.69;46.87;52214.66;5113094;28;20201;-81
2024/02/16 04:33:35;;;;;;;0.67;0.63;;;;;;;-145.69;45.85;52234.47;5112744;28;20648;-81
2024/02/16 04:36:02;;;;;;;1.00;0.80;;;;;;;-145.69;46.18;52228.53;5113147;28;20678;-80
2024/02/16 04:38:28;;;;;;;2.30;0.80;;;;;;;-145.69;45.70;52246.34;5112578;28;20208;-80
2024/02/16 04:40:56;;;;;;;0.83;0.77;;;;;;;-145.69;45.72;52230.50;5113029;28;20201;-80
2024/02/16 04:43:23;;;;;;;1.20;0.93;;;;;;;-145.69;46.33;52238.44;5112988;28;20626;-80
2024/02/16 04:45:49;;;;;;;2.77;1.00;;;;;;;-145.69;46.32;52222.59;5112962;28;20548;-80
2024/02/16 04:48:16;;;;;;;0.90;0.80;;;;;;;-145.69;45.39;52210.72;5112442;28;20245;-80
2024/02/16 04:50:42;;;;;;;3.53;1.23;;;;;;;-145.69;46.36;52230.50;5113163;28;20677;-80
2024/02/16 04:53:09;;;;;;;2.17;0.80;;;;;;;-145.69;46.43;52190.91;5112247;28;20205;-81
2024/02/16 04:55:35;;;;;;;1.20;0.70;;;;;;;-145.69;46.69;52200.81;5113006;28;20281;-80
2024/02/16 04:58:05;;;;;;;2.23;0.73;;;;;;;-145.69;45.84;52218.63;5112820;28;20197;-81
2024/02/16 05:00:31;;;;;;;1.57;1.00;;;;;;;-145.69;45.70;52218.63;5112663;28;20201;-81
2024/02/16 05:02:58;;;;;;;3.97;0.90;;;;;;;-145.69;46.18;52214.66;5112796;28;20216;-80
2024/02/16 05:05:24;;;;;;;1.27;0.80;;;;;;;-145.69;46.90;52218.63;5112852;28;20205;-81
2024/02/16 05:07:51;;;;;;;1.70;0.90;;;;;;;-145.69;47.45;52220.59;5112894;28;20201;-81
2024/02/16 05:10:19;;;;;;;1.73;1.10;;;;;;;-145.69;46.88;52226.53;5116330;27;20209;-79
2024/02/16 05:12:46;;;;;;;1.10;1.00;;;;;;;-145.69;46.99;52224.56;5116437;28;20202;-80
2024/02/16 05:15:14;;;;;;;2.67;0.80;;;;;;;-145.69;46.46;52250.31;5115804;28;20190;-82
2024/02/16 05:17:40;;;;;;;1.60;0.70;;;;;;;-145.69;46.72;52212.69;5116514;28;20284;-82
2024/02/16 05:20:14;;;;;;;1.83;1.00;;;;;;;-145.69;47.45;52234.47;5116659;28;20236;-80
2024/02/16 05:22:42;;;;;;;1.47;0.90;;;;;;;-145.69;47.33;52218.63;5116493;28;20197;-79
2024/02/16 05:25:09;;;;;;;1.33;1.00;;;;;;;-145.69;46.82;52220.59;5116263;28;20217;-80
2024/02/16 05:27:35;;;;;;;6.47;1.13;;;;;;;-145.69;46.52;52250.31;5116039;28;20601;-79
2024/02/16 05:30:02;;;;;;;3.63;0.80;;;;;;;-145.69;46.55;52234.47;5116081;28;20197;-81
2024/02/16 05:32:30;;;;;;;2.97;1.10;;;;;;;-145.69;46.74;52258.22;5116497;28;20201;-80
2024/02/16 05:34:56;;;;;;;2.13;1.20;;;;;;;-145.69;46.94;52200.81;5116318;28;20232;-80
2024/02/16 05:37:22;;;;;;;4.17;0.70;;;;;;;-145.69;46.82;52222.59;5115975;28;20194;-80
2024/02/16 05:39:56;;;;;;;1.73;1.10;;;;;;;-145.69;46.16;52192.88;5115996;28;20302;-80
2024/02/16 05:42:23;;;;;;;3.57;1.10;;;;;;;-145.69;46.95;52226.53;5115893;28;20229;-81
2024/02/16 05:44:51;;;;;;;1.40;0.90;;;;;;;-145.69;46.56;52188.91;5115608;28;20225;-81
2024/02/16 05:47:17;;;;;;;1.97;0.90;;;;;;;-145.69;47.29;52232.50;5115571;28;20606;-81
2024/02/16 05:49:46;;;;;;;3.07;1.43;;;;;;;-145.69;47.31;52210.72;5115597;28;20306;-80
2024/02/16 05:52:18;;;;;;;1.13;0.80;;;;;;;-145.69;47.98;52202.78;5116031;28;20284;-79
2024/02/16 05:54:45;;;;;;;4.00;0.80;;;;;;;-145.69;47.42;52214.66;5116094;28;20292;-80
2024/02/16 05:57:12;;;;;;;2.90;0.90;;;;;;;-145.69;47.09;52234.47;5115781;28;20227;-80
2024/02/16 05:59:39;;;;;;;2.87;0.97;;;;;;;-145.69;47.45;52216.66;5115867;28;20204;-80
2024/02/16 06:02:06;;;;;;;1.00;0.90;;;;;;;-145.69;47.80;52234.47;5115904;28;20204;-81
2024/02/16 06:04:33;;;;;;;1.70;1.00;;;;;;;-145.69;47.70;52212.69;5115553;28;20320;-80
2024/02/16 06:07:01;;;;;;;0.90;0.80;;;;;;;-145.69;47.97;52186.94;5115878;28;20254;-80
2024/02/16 06:09:30;;;;;;;1.47;0.93;;;;;;;-145.69;47.98;52226.53;5115577;28;20205;-80
2024/02/16 06:11:57;;;;;;;7.20;0.80;;;;;;;-145.69;48.26;52230.50;5116080;28;20233;-80
2024/02/16 06:14:24;;;;;;;1.43;0.87;;;;;;;-145.69;47.81;52212.69;5115440;28;20189;-82
2024/02/16 06:17:03;;;;;;;5.77;1.27;;;;;;;-145.69;48.47;52222.59;5115166;27;20193;-80
2024/02/16 06:19:29;;;;;;;1.33;0.90;;;;;;;-145.69;48.45;52226.53;5115361;28;20220;-81
2024/02/16 06:21:57;;;;;;;2.63;1.20;;;;;;;-145.69;48.87;52244.38;5114787;28;20209;-80
2024/02/16 06:24:25;;;;;;;1.40;1.00;;;;;;;-145.69;48.75;52214.66;5115256;28;20229;-81
2024/02/16 06:26:52;;;;;;;0.87;0.80;;;;;;;-145.69;49.01;52250.31;5115376;28;20250;-81
2024/02/16 06:29:20;;;;;;;1.23;0.90;;;;;;;-145.69;49.50;52236.44;5115015;28;20615;-80
2024/02/16 06:31:47;;;;;;;1.17;0.80;;;;;;;-145.69;49.01;52212.69;5114769;27;20229;-81
2024/02/16 06:34:14;;;;;;;0.80;0.80;;;;;;;-145.69;49.00;52234.47;5115165;28;20204;-79
2024/02/16 06:36:40;;;;;;;1.73;1.00;;;;;;;-145.69;49.57;52248.34;5114393;28;20205;-79
2024/02/16 06:39:05;;;;;;;3.90;1.20;;;;;;;-145.69;49.48;52230.50;5114627;28;20194;-82
2024/02/16 06:41:33;;;;;;;2.47;1.30;;;;;;;-145.69;49.38;52232.50;5114846;28;20201;-80
2024/02/16 06:44:00;;;;;;;3.20;0.90;;;;;;;-145.69;49.30;52232.50;5114838;28;20271;-79
2024/02/16 06:46:27;;;;;;;1.80;0.87;;;;;;;-145.69;49.43;52208.72;5114333;28;20196;-81
2024/02/16 06:48:56;;;;;;;3.33;1.10;;;;;;;-145.69;50.14;52238.44;5114707;28;20689;-82
2024/02/16 06:51:22;;;;;;;1.60;1.03;;;;;;;-145.69;49.74;52224.56;5114818;28;20246;-80
2024/02/16 06:53:49;;;;;;;1.73;1.10;;;;;;;-145.69;49.55;52198.81;5114425;28;20230;-81
2024/02/16 06:56:15;;;;;;;1.63;1.00;;;;;;;-145.69;49.86;52242.38;5114712;28;20231;-80
2024/02/16 06:58:43;;;;;;;1.60;1.03;;;;;;;-145.69;49.42;52236.44;5114381;28;20208;-81
2024/02/16 07:01:09;;;;;;;1.33;0.87;;;;;;;-145.69;49.24;52238.44;5114606;28;20602;-80
2024/02/16 07:03:36;;;;;;;1.67;0.97;;;;;;;-145.69;49.87;52262.19;5114258;28;20193;-81
2024/02/16 07:06:03;;;;;;;1.77;1.10;;;;;;;-145.69;49.16;52206.75;5114697;28;20193;-80
2024/02/16 07:08:30;;;;;;;2.67;1.20;;;;;;;-145.69;48.36;52246.34;5114563;28;20591;-81
2024/02/16 07:10:56;;;;;;;1.17;0.90;;;;;;;-145.69;48.71;52230.50;5114495;28;20201;-82
2024/02/16 07:13:23;;;;;;;2.80;1.00;;;;;;;-145.69;48.31;52226.53;5114255;28;20201;-81
2024/02/16 07:15:51;;;;;;;4.07;1.13;;;;;;;-145.69;48.08;52238.44;5113769;28;20205;-81
2024/02/16 07:18:17;;;;;;;3.53;1.03;;;;;;;-145.69;48.01;52202.78;5098131;28;20247;-81
2024/02/16 07:20:44;;;;;;;1.37;0.90;;;;;;;-145.69;48.53;52220.59;5107413;28;20206;-80
2024/02/16 07:23:10;;;;;;;2.23;1.10;;;;;;;-145.69;48.38;52202.78;5114175;28;20197;-81
2024/02/16 07:25:37;;;;;;;2.60;1.17;;;;;;;-145.69;48.35;52244.38;5103872;27;20587;-81
2024/02/16 07:28:04;;;;;;;2.63;0.90;;;;;;;-145.69;47.88;52220.59;5093742;28;20208;-80
2024/02/16 07:30:31;;;;;;;5.57;1.10;;;;;;;-145.69;47.98;52208.72;5093809;28;20194;-80
2024/02/16 07:32:59;;;;;;;3.47;1.00;;;;;;;-145.69;47.63;52216.66;5093041;28;20255;-81
2024/02/16 07:35:25;;;;;;;2.70;1.47;;;;;;;-145.69;47.33;52218.63;5094208;28;20206;-81
2024/02/16 07:37:53;;;;;;;2.60;1.23;;;;;;;-145.69;46.89;52196.84;5113944;28;20203;-82
2024/02/16 07:40:20;;;;;;;5.40;1.10;;;;;;;-145.69;46.78;52222.59;5113940;28;20610;-81
2024/02/16 07:42:47;;;;;;;3.58;0.88;;;;;;;-145.69;47.48;52222.59;5101437;28;20289;-81
2024/02/16 07:45:13;;;;;;;1.23;0.85;;;;;;;-145.69;46.97;52194.88;5104762;27;20232;-81
2024/02/16 07:47:41;;;;;;;2.70;1.20;;;;;;;-145.69;47.16;52210.72;5113702;28;20660;-82
2024/02/16 07:50:10;;;;;;;5.10;1.20;;;;;;;-145.69;47.08;52218.63;5113154;28;20617;-82
2024/02/16 07:52:38;;;;;;;2.23;1.30;;;;;;;-145.69;47.42;52198.81;5113439;28;20202;-82
2024/02/16 07:55:05;;;;;;;1.80;1.10;;;;;;;-145.69;47.23;52222.59;5113501;28;20258;-80
2024/02/16 07:57:32;;;;;;;2.30;1.23;;;;;;;-145.69;46.76;52186.94;5113429;28;20667;-81
2024/02/16 07:59:58;;;;;;;4.63;1.27;;;;;;;-145.69;47.35;52214.66;5112575;28;20540;-81
2024/02/16 08:02:25;;;;;;;3.40;1.37;;;;;;;-145.69;47.08;52184.97;5113680;28;20399;-80
2024/02/16 08:04:52;;;;;;;1.40;1.03;;;;;;;-145.69;47.06;52226.53;5113266;28;20278;-82
2024/02/16 08:07:19;;;;;;;3.10;1.20;;;;;;;-145.69;46.07;52190.91;5113456;28;20300;-80
2024/02/16 08:09:46;;;;;;;1.38;0.98;;;;;;;-145.69;46.15;52202.78;5112887;28;20197;-81
2024/02/16 08:12:13;;;;;;;1.77;0.90;;;;;;;-145.69;46.67;52218.63;5113189;28;20205;-81
2024/02/16 08:14:39;;;;;;;3.23;1.00;;;;;;;-145.69;46.69;52212.69;5112875;28;20201;-81
2024/02/16 08:17:06;;;;;;;1.57;1.00;;;;;;;-145.69;46.14;52202.78;5112935;28;20541;-81
2024/02/16 08:19:34;;;;;;;3.70;1.20;;;;;;;-145.69;46.30;52188.91;5113165;28;20201;-80
2024/02/16 08:22:00;;;;;;;5.20;1.38;;;;;;;-145.69;45.76;52188.91;5113007;28;20232;-79
2024/02/16 08:24:28;;;;;;;1.00;0.80;;;;;;;-145.69;45.90;52173.09;5113111;28;20224;-80
2024/02/16 08:26:56;;;;;;;2.83;1.05;;;;;;;-145.69;45.87;52188.91;5112758;28;20216;-80
2024/02/16 08:29:22;;;;;;;1.80;0.95;;;;;;;-145.69;45.27;52179.03;5113172;28;20206;-81
2024/02/16 08:31:50;;;;;;;2.13;1.10;;;;;;;-145.69;45.29;52190.91;5113318;28;20201;-81
2024/02/16 08:34:16;;;;;;;6.13;1.02;;;;;;;-145.69;45.01;52196.84;5112623;28;20537;-81
2024/02/16 08:36:44;;;;;;;3.05;1.33;;;;;;;-145.69;43.95;52175.06;5113081;28;20746;-81
2024/02/16 08:39:12;;;;;;;3.10;1.33;;;;;;;-145.69;43.25;52167.13;5112788;28;20540;-80
2024/02/16 08:41:40;;;;;;;9.05;1.30;;;;;;;-145.69;42.26;52200.81;5113258;28;20293;-81
2024/02/16 08:44:09;;;;;;;2.90;1.40;;;;;;;-145.69;42.51;52165.16;5113892;28;20231;-81
2024/02/16 08:46:35;;;;;;;2.55;1.30;;;;;;;-145.69;42.63;52147.34;5117287;28;20227;-81
2024/02/16 08:49:02;;;;;;;4.18;1.10;;;;;;;-145.69;42.45;52163.19;5117016;28;20294;-79
2024/02/16 08:51:28;;;;;;;2.00;1.23;;;;;;;-145.69;42.69;52131.50;5116928;28;20576;-80
2024/02/16 08:53:55;;;;;;;3.15;1.13;;;;;;;-145.69;42.88;52135.47;5117105;28;20201;-80
2024/02/16 08:56:21;;;;;;;1.45;0.80;;;;;;;-145.69;43.59;52171.09;5117134;28;20205;-80
2024/02/16 08:58:49;;;;;;;2.35;1.10;;;;;;;-145.69;42.93;52188.91;5117246;28;20198;-80
2024/02/16 09:01:16;;;;;;;4.15;1.13;;;;;;;-145.69;42.47;52141.41;5117159;28;20202;-81
2024/02/16 09:03:43;;;;;;;2.30;1.27;;;;;;;-145.69;42.24;52139.41;5116310;28;20544;-79
2024/02/16 09:06:09;;;;;;;2.10;1.17;;;;;;;-145.69;42.39;52147.34;5116729;28;20270;-80
2024/02/16 09:08:36;;;;;;;12.93;3.50;;;;;;;-145.69;42.05;52163.19;5116942;28;20224;-80
2024/02/16 09:11:04;;;;;;;5.30;1.45;;;;;;;-145.69;42.39;52159.22;5116676;28;20675;-81
2024/02/16 09:13:31;;;;;;;2.28;1.35;;;;;;;-145.69;42.05;52109.72;5116622;28;20648;-82
2024/02/16 09:16:00;;;;;;;2.45;1.27;;;;;;;-145.69;42.04;52127.53;5116493;28;20717;-81
2024/02/16 09:18:27;;;;;;;3.53;1.10;;;;;;;-145.69;41.70;52129.50;5116788;28;20205;-81
2024/02/16 09:20:53;;;;;;;3.53;1.05;;;;;;;-145.69;42.27;52123.56;5115982;28;20200;-81
2024/02/16 09:23:20;;;;;;;4.88;1.30;;;;;;;-145.69;42.13;52123.56;5116485;28;20208;-81
2024/02/16 09:25:46;;;;;;;4.57;1.13;;;;;;;-145.69;41.98;52119.63;5116414;28;20221;-80
2024/02/16 09:28:13;;;;;;;2.22;1.20;;;;;;;-145.69;42.28;52131.50;5116354;28;20251;-80
2024/02/16 09:30:39;;;;;;;1.92;1.00;;;;;;;-145.69;42.07;52115.66;5116264;28;20194;-81
2024/02/16 09:33:08;;;;;;;3.55;1.20;;;;;;;-145.69;41.98;52143.38;5115583;28;20201;-80
2024/02/16 09:35:34;;;;;;;3.05;1.52;;;;;;;-145.69;41.46;52133.47;5116309;28;20224;-80
2024/02/16 09:38:00;;;;;;;1.80;1.00;;;;;;;-145.69;41.76;52115.66;5116003;28;20193;-80
2024/02/16 09:40:27;;;;;;;2.28;1.00;;;;;;;-145.69;41.43;52101.78;5116341;28;20216;-80
2024/02/16 09:42:54;;;;;;;6.65;1.50;;;;;;;-145.69;41.64;52107.72;5114496;27;20270;-81
2024/02/16 09:45:20;;;;;;;11.63;5.00;;;;;;;-145.69;41.90;52119.63;5115815;28;20236;-80
2024/02/16 09:47:47;;;;;;;17.88;7.40;;;;;;;-145.69;41.44;52107.72;5116477;28;20234;-82
2024/02/16 09:50:15;;;;;;;15.48;6.63;;;;;;;-145.69;41.86;52099.81;5116080;28;20263;-82
2024/02/16 09:52:47;;;;;;;14.55;5.88;;;;;;;-145.69;41.42;52089.91;5116533;28;20232;-81
2024/02/16 09:55:14;;;;;;;15.43;5.80;;;;;;;-145.69;41.28;52089.91;5115880;28;20254;-80
2024/02/16 09:57:41;;;;;;;10.85;5.43;;;;;;;-145.69;41.28;52083.97;5115996;28;20678;-81
2024/02/16 10:00:09;;;;;;;10.57;4.75;;;;;;;-145.69;40.62;52101.78;5116220;28;20247;-81
2024/02/16 10:02:41;;;;;;;4.85;2.35;;;;;;;-145.69;39.85;52060.22;5115820;28;20205;-80
2024/02/16 10:05:12;;;;;;;7.15;2.72;;;;;;;-145.69;39.54;52115.66;5115245;28;20217;-81
2024/02/16 10:07:42;;;;;;;8.50;3.35;;;;;;;-145.69;39.52;52095.84;5100827;28;20190;-81
2024/02/16 10:10:20;;;;;;;6.63;3.53;;;;;;;-145.69;39.52;52093.88;5115738;28;20271;-81
2024/02/16 10:12:47;;;;;;;5.15;3.05;;;;;;;-145.69;39.57;52105.75;5115666;28;20243;-81
2024/02/16 10:15:23;;;;;;;4.28;2.30;;;;;;;-145.69;39.31;52091.88;5114826;28;20208;-80
2024/02/16 10:17:59;;;;;;;4.70;2.20;;;;;;;-145.69;38.76;52107.72;5115293;28;20712;-81
2024/02/16 10:20:26;;;;;;;4.72;1.75;;;;;;;-145.69;39.27;52072.09;5115470;28;20258;-80
2024/02/16 10:23:07;;;;;;;4.60;1.70;;;;;;;-145.69;37.61;52066.16;5115171;28;20201;-80
2024/02/16 10:25:34;;;;;;;3.85;1.60;;;;;;;-145.69;38.91;52091.88;5112875;28;20224;-81
2024/02/16 10:28:05;;;;;;;3.90;1.40;;;;;;;-145.69;38.21;52048.31;5114066;27;20198;-81
2024/02/16 10:30:36;;;;;;;3.85;1.80;;;;;;;-145.69;38.23;52080.00;5115277;28;20236;-81
2024/02/16 10:33:03;;;;;;;7.45;1.42;;;;;;;-145.69;37.99;52048.31;5113342;28;20204;-81
2024/02/16 10:35:30;;;;;;;6.80;1.40;;;;;;;-145.69;38.54;52042.38;5115375;28;20201;-81
2024/02/16 10:37:58;;;;;;;4.50;1.50;;;;;;;-145.69;38.14;52074.06;5115407;28;20201;-81
2024/02/16 10:40:28;;;;;;;3.95;1.40;;;;;;;-145.69;37.70;52060.22;5115666;28;20209;-80
2024/02/16 10:42:55;;;;;;;3.40;1.25;;;;;;;-145.69;37.05;52048.31;5114173;27;20197;-80
2024/02/16 10:45:22;;;;;;;1.98;1.27;;;;;;;-145.69;37.12;52064.16;5115037;28;20236;-81
2024/02/16 10:47:49;;;;;;;4.60;1.10;;;;;;;-145.69;37.58;52091.88;5115339;27;20206;-79
2024/02/16 10:50:15;;;;;;;3.17;1.27;;;;;;;-145.69;38.28;52080.00;5115050;28;20201;-81
2024/02/16 10:52:45;;;;;;;2.13;1.10;;;;;;;-145.69;38.65;52066.16;5115120;28;20201;-80
2024/02/16 10:55:12;;;;;;;5.50;1.50;;;;;;;-145.69;38.24;52054.25;5114545;28;20189;-81
2024/02/16 10:57:40;;;;;;;3.30;1.20;;;;;;;-145.69;37.11;52060.22;5114519;28;20292;-78
2024/02/16 11:00:10;;;;;;;1.25;1.10;;;;;;;-145.69;37.37;52064.16;5114871;28;20198;-79
2024/02/16 11:02:55;;;;;;;4.30;1.40;;;;;;;-145.69;37.35;52087.94;5115116;28;20267;-80
2024/02/16 11:05:33;;;;;;;3.72;1.20;;;;;;;-145.69;37.70;52052.28;5097417;27;20225;-80
2024/02/16 11:08:04;;;;;;;2.63;1.27;;;;;;;-145.69;37.63;52076.03;5099156;28;20233;-80
2024/02/16 11:10:35;;;;;;;3.92;1.30;;;;;;;-145.69;37.66;52044.38;5114818;28;20247;-80
2024/02/16 11:13:05;;;;;;;3.20;1.50;;;;;;;-145.69;37.40;52040.41;5114118;28;20202;-80
2024/02/16 11:15:32;;;;;;;4.10;1.35;;;;;;;-145.69;36.80;52054.25;5113552;28;20237;-80
2024/02/16 11:18:01;;;;;;;6.47;1.60;;;;;;;-145.69;37.10;52028.53;5114603;28;20197;-79